createdAt,value
2022-09-25T00:01:50.390Z,99946.66
2022-09-25T00:04:53.196Z,99947.97
2022-09-25T00:07:56.523Z,99945.09
2022-09-25T00:10:58.233Z,99952.19
2022-09-25T00:14:01.330Z,99954.75
2022-09-25T00:17:03.200Z,99956.56
2022-09-25T00:20:05.608Z,99951.75
2022-09-25T00:23:08.795Z,99944.19
2022-09-25T00:26:11.043Z,99952.06
2022-09-25T00:29:17.496Z,99947.38
2022-09-25T00:32:19.178Z,99945.09
2022-09-25T00:35:20.852Z,99941.22
2022-09-25T00:38:23.779Z,99946.38
2022-09-25T00:41:27.587Z,99952.47
2022-09-25T00:44:56.269Z,99948.91
2022-09-25T00:48:01.049Z,99946.66
2022-09-25T00:51:02.885Z,99944.25
2022-09-25T00:54:08.226Z,99937.13
2022-09-25T00:57:19.330Z,99939.03
2022-09-25T01:00:21.131Z,99928.63
2022-09-25T01:03:23.388Z,99939.41
2022-09-25T01:06:27.335Z,99931.78
2022-09-25T01:09:30.925Z,99928.94
2022-09-25T01:12:33.585Z,99927.53
2022-09-25T01:15:43.255Z,99923.75
2022-09-25T01:18:57.154Z,99928.03
2022-09-25T01:22:10.991Z,99929.19
2022-09-25T01:25:25.028Z,99920.50
2022-09-25T01:28:54.277Z,99923.91
2022-09-25T01:32:03.090Z,99919.34
2022-09-25T01:35:12.575Z,99923.75
2022-09-25T01:38:23.748Z,99916.69
2022-09-25T01:41:30.336Z,99924.44
2022-09-25T01:44:36.837Z,99916.69
2022-09-25T01:47:39.352Z,99914.34
2022-09-25T01:50:44.911Z,99913.22
2022-09-25T01:53:52.275Z,99904.91
2022-09-25T01:56:57.443Z,99914.22
2022-09-25T02:00:05.726Z,99914.41
2022-09-25T02:03:21.391Z,99913.16
2022-09-25T02:06:24.836Z,99906.97
2022-09-25T02:09:32.374Z,99911.88
2022-09-25T02:12:40.750Z,99907.41
2022-09-25T02:15:48.693Z,99907.03
2022-09-25T02:19:09.348Z,99904.53
2022-09-25T02:22:17.304Z,99903.00
2022-09-25T02:25:25.377Z,99905.53
2022-09-25T02:28:29.060Z,99912.66
2022-09-25T02:31:36.339Z,99905.97
2022-09-25T02:34:38.615Z,99911.66
2022-09-25T02:37:40.331Z,99910.75
2022-09-25T02:40:50.465Z,99907.03
2022-09-25T02:44:03.211Z,99904.47
2022-09-25T02:47:19.456Z,99909.06
2022-09-25T02:50:26.609Z,99906.69
2022-09-25T02:53:35.063Z,99907.38
2022-09-25T02:56:42.566Z,99906.44
2022-09-25T02:59:50.029Z,99908.97
2022-09-25T03:02:56.613Z,99914.56
2022-09-25T03:05:59.911Z,99912.03
2022-09-25T03:09:02.573Z,99905.97
2022-09-25T03:12:05.069Z,99902.78
2022-09-25T03:15:08.045Z,99894.50
2022-09-25T03:18:12.200Z,99901.09
2022-09-25T03:21:14.263Z,99905.03
2022-09-25T03:24:16.203Z,99905.59
2022-09-25T03:27:17.814Z,99899.19
2022-09-25T03:30:19.558Z,99907.38
2022-09-25T03:33:22.543Z,99907.84
2022-09-25T03:36:25.861Z,99905.03
2022-09-25T03:39:27.647Z,99902.91
2022-09-25T03:42:29.782Z,99905.66
2022-09-25T03:45:31.407Z,99907.97
2022-09-25T03:48:35.042Z,99903.38
2022-09-25T03:51:36.659Z,99903.19
2022-09-25T03:54:38.556Z,99903.81
2022-09-25T03:57:41.197Z,99900.31
2022-09-25T04:00:44.327Z,99897.69
2022-09-25T04:03:47.726Z,99897.00
2022-09-25T04:06:49.613Z,99903.88
2022-09-25T04:09:51.360Z,99901.16
2022-09-25T04:12:54.311Z,99898.22
2022-09-25T04:15:57.628Z,99902.00
2022-09-25T04:19:00.628Z,99901.16
2022-09-25T04:22:02.290Z,99901.09
2022-09-25T04:25:04.723Z,99901.53
2022-09-25T04:28:06.992Z,99903.19
2022-09-25T04:31:08.749Z,99901.16
2022-09-25T04:34:11.988Z,99899.63
2022-09-25T04:37:14.062Z,99903.81
2022-09-25T04:40:15.987Z,99904.69
2022-09-25T04:43:18.350Z,99910.84
2022-09-25T04:46:22.237Z,99915.47
2022-09-25T04:49:25.711Z,99913.69
2022-09-25T04:52:31.731Z,99912.16
2022-09-25T04:55:33.393Z,99908.59
2022-09-25T04:58:35.366Z,99907.63
2022-09-25T05:01:37.294Z,99910.75
2022-09-25T05:04:40.831Z,99914.72
2022-09-25T05:07:51.518Z,99911.19
2022-09-25T05:10:53.184Z,99906.03
2022-09-25T05:13:54.899Z,99907.88
2022-09-25T05:16:56.970Z,99919.53
2022-09-25T05:19:59.960Z,99914.31
2022-09-25T05:23:04.320Z,99924.56
2022-09-25T05:26:06.087Z,99901.44
2022-09-25T05:29:07.834Z,99907.81
2022-09-25T05:32:09.496Z,99913.06
2022-09-25T05:35:13.606Z,99909.78
2022-09-25T05:38:15.224Z,99911.94
2022-09-25T05:41:17.146Z,99917.56
2022-09-25T05:44:18.803Z,99907.56
2022-09-25T05:47:20.489Z,99911.38
2022-09-25T05:50:23.467Z,99909.69
2022-09-25T05:53:25.748Z,99914.94
2022-09-25T05:56:27.450Z,99912.53
2022-09-25T05:59:29.561Z,99913.44
2022-09-25T06:02:31.307Z,99920.50
2022-09-25T06:05:34.648Z,99925.28
2022-09-25T06:08:36.422Z,99914.63
2022-09-25T06:11:38.059Z,99908.91
2022-09-25T06:14:40.971Z,99915.44
2022-09-25T06:17:42.970Z,99912.41
2022-09-25T06:20:46.174Z,99914.69
2022-09-25T06:23:48.663Z,99923.38
2022-09-25T06:26:50.596Z,99920.44
2022-09-25T06:29:52.307Z,99920.31
2022-09-25T06:32:57.536Z,99925.81
2022-09-25T06:36:01.108Z,99924.56
2022-09-25T06:39:03.242Z,99925.91
2022-09-25T06:42:05.236Z,99927.50
2022-09-25T06:45:07.928Z,99920.06
2022-09-25T06:48:12.577Z,99930.19
2022-09-25T06:51:15.614Z,99929.63
2022-09-25T06:54:17.753Z,99934.78
2022-09-25T06:57:19.468Z,99930.38
2022-09-25T07:00:21.111Z,99935.75
2022-09-25T07:03:42.353Z,99935.13
2022-09-25T07:06:45.730Z,99932.00
2022-09-25T07:09:50.709Z,99931.28
2022-09-25T07:12:52.353Z,99931.47
2022-09-25T07:15:55.561Z,99934.47
2022-09-25T07:19:00.725Z,99927.19
2022-09-25T07:22:04.836Z,99926.91
2022-09-25T07:25:08.035Z,99930.28
2022-09-25T07:28:09.791Z,99935.31
2022-09-25T07:31:16.210Z,99923.94
2022-09-25T07:34:17.928Z,99925.44
2022-09-25T07:37:21.106Z,99925.38
2022-09-25T07:40:22.992Z,99927.69
2022-09-25T07:43:24.756Z,99923.66
2022-09-25T07:46:28.327Z,99929.88
2022-09-25T07:49:30.009Z,99929.81
2022-09-25T07:52:33.230Z,99934.75
2022-09-25T07:55:34.876Z,99929.16
2022-09-25T07:58:36.545Z,99939.34
2022-09-25T08:01:43.618Z,99936.00
2022-09-25T08:04:47.242Z,99931.38
2022-09-25T08:07:50.248Z,99930.38
2022-09-25T08:10:51.944Z,99937.44
2022-09-25T08:13:54.213Z,99930.16
2022-09-25T08:16:56.243Z,99928.25
2022-09-25T08:19:58.302Z,99927.91
2022-09-25T08:23:01.338Z,99933.91
2022-09-25T08:26:03.030Z,99931.00
2022-09-25T08:29:04.950Z,99928.78
2022-09-25T08:32:06.839Z,99942.19
2022-09-25T08:35:09.361Z,99936.22
2022-09-25T08:38:12.455Z,99933.75
2022-09-25T08:41:18.099Z,99932.56
2022-09-25T08:44:26.207Z,99925.78
2022-09-25T08:47:47.417Z,99932.50
2022-09-25T08:50:51.009Z,99928.78
2022-09-25T08:53:54.346Z,99926.84
2022-09-25T08:57:00.256Z,99925.56
2022-09-25T09:00:06.048Z,99928.47
2022-09-25T09:03:12.341Z,99925.81
2022-09-25T09:06:16.820Z,99926.50
2022-09-25T09:09:25.777Z,99925.28
2022-09-25T09:12:35.900Z,99937.78
2022-09-25T09:15:43.096Z,99936.75
2022-09-25T09:18:45.112Z,99937.28
2022-09-25T09:21:54.291Z,99935.69
2022-09-25T09:25:04.568Z,99944.00
2022-09-25T09:28:32.948Z,99941.41
2022-09-25T09:31:46.784Z,99945.59
2022-09-25T09:35:06.815Z,99949.31
2022-09-25T09:38:21.918Z,99946.84
2022-09-25T09:41:35.168Z,99936.03
2022-09-25T09:44:54.302Z,99939.84
2022-09-25T09:48:04.126Z,99934.06
2022-09-25T09:51:09.840Z,99929.16
2022-09-25T09:54:15.947Z,99936.63
2022-09-25T09:57:23.081Z,99922.84
2022-09-25T10:00:25.195Z,99939.72
2022-09-25T10:03:32.672Z,99929.16
2022-09-25T10:06:37.836Z,99935.69
2022-09-25T10:09:39.786Z,99930.31
2022-09-25T10:12:46.954Z,99928.44
2022-09-25T10:15:52.715Z,99931.00
2022-09-25T10:19:00.996Z,99927.34
2022-09-25T10:22:10.050Z,99920.19
2022-09-25T10:25:11.828Z,99919.63
2022-09-25T10:28:26.932Z,99916.66
2022-09-25T10:31:31.983Z,99916.19
2022-09-25T10:34:33.827Z,99919.50
2022-09-25T10:37:35.981Z,99915.66
2022-09-25T10:40:39.210Z,99919.56
2022-09-25T10:43:53.751Z,99920.72
2022-09-25T10:47:14.706Z,99923.25
2022-09-25T10:50:20.238Z,99913.88
2022-09-25T10:53:30.608Z,99921.31
2022-09-25T10:56:36.018Z,99916.91
2022-09-25T10:59:40.089Z,99925.94
2022-09-25T11:02:46.245Z,99936.63
2022-09-25T11:05:53.188Z,99939.72
2022-09-25T11:09:07.916Z,99926.84
2022-09-25T11:12:16.132Z,99937.53
2022-09-25T11:15:22.108Z,99939.16
2022-09-25T11:18:36.381Z,99930.88
2022-09-25T11:21:45.412Z,99937.28
2022-09-25T11:25:04.541Z,99935.16
2022-09-25T11:28:13.133Z,99929.72
2022-09-25T11:31:32.962Z,99928.34
2022-09-25T11:34:47.925Z,99929.72
2022-09-25T11:38:02.598Z,99925.81
2022-09-25T11:41:12.888Z,99933.91
2022-09-25T11:44:34.343Z,99921.88
2022-09-25T11:47:44.209Z,99923.16
2022-09-25T11:50:59.519Z,99920.50
2022-09-25T11:54:32.585Z,99922.97
2022-09-25T11:57:43.657Z,99916.44
2022-09-25T12:00:53.139Z,99906.53
2022-09-25T12:04:28.402Z,99916.31
2022-09-25T12:07:40.745Z,99913.78
2022-09-25T12:10:54.336Z,99911.91
2022-09-25T12:14:03.304Z,99914.44
2022-09-25T12:17:12.860Z,99901.41
2022-09-25T12:20:24.948Z,99907.31
2022-09-25T12:23:31.386Z,99904.63
2022-09-25T12:26:46.084Z,99902.47
2022-09-25T12:30:11.632Z,99903.84
2022-09-25T12:33:23.849Z,99908.69
2022-09-25T12:36:36.359Z,99907.41
2022-09-25T12:39:43.587Z,99919.34
2022-09-25T12:42:49.675Z,99911.88
2022-09-25T12:45:56.981Z,99918.28
2022-09-25T12:49:04.455Z,99926.47
2022-09-25T12:52:12.918Z,99915.50
2022-09-25T12:55:19.094Z,99914.13
2022-09-25T12:58:28.669Z,99915.97
2022-09-25T13:01:40.705Z,99921.22
2022-09-25T13:04:55.418Z,99915.34
2022-09-25T13:08:07.151Z,99918.34
2022-09-25T13:11:16.313Z,99919.16
2022-09-25T13:14:30.567Z,99916.41
2022-09-25T13:17:32.465Z,99916.06
2022-09-25T13:21:22.094Z,99912.97
2022-09-25T13:24:25.346Z,99911.00
2022-09-25T13:27:38.736Z,99916.66
2022-09-25T13:30:56.849Z,99911.81
2022-09-25T13:34:05.153Z,99919.38
2022-09-25T13:37:09.303Z,99913.94
2022-09-25T13:40:37.895Z,99912.25
2022-09-25T13:43:39.924Z,99916.41
2022-09-25T13:46:41.705Z,99926.97
2022-09-25T13:49:50.433Z,99922.06
2022-09-25T13:53:18.201Z,99925.50
2022-09-25T13:56:44.628Z,99931.94
2022-09-25T14:00:02.189Z,99930.53
2022-09-25T14:03:28.000Z,99921.84
2022-09-25T14:06:38.873Z,99914.06
2022-09-25T14:09:46.004Z,99918.69
2022-09-25T14:12:49.632Z,99920.09
2022-09-25T14:15:52.931Z,99924.22
2022-09-25T14:18:58.159Z,99914.50
2022-09-25T14:22:01.791Z,99919.66
2022-09-25T14:25:03.876Z,99912.03
2022-09-25T14:28:18.890Z,99910.56
2022-09-25T14:31:46.253Z,99914.22
2022-09-25T14:35:01.296Z,99910.22
2022-09-25T14:38:37.066Z,99913.03
2022-09-25T14:42:03.094Z,99917.78
2022-09-25T14:45:30.988Z,99916.97
2022-09-25T14:48:38.594Z,99915.00
2022-09-25T14:51:44.434Z,99912.38
2022-09-25T14:54:48.574Z,99914.09
2022-09-25T14:57:51.440Z,99919.78
2022-09-25T15:00:57.825Z,99908.38
2022-09-25T15:04:02.211Z,99907.09
2022-09-25T15:07:14.562Z,99902.72
2022-09-25T15:10:26.505Z,99901.69
2022-09-25T15:13:33.428Z,99902.03
2022-09-25T15:16:57.229Z,99899.63
2022-09-25T15:20:01.592Z,99898.63
2022-09-25T15:23:05.684Z,99909.75
2022-09-25T15:26:16.322Z,99899.31
2022-09-25T15:29:21.526Z,99914.69
2022-09-25T15:32:28.652Z,99906.53
2022-09-25T15:35:30.928Z,99909.41
2022-09-25T15:38:35.196Z,99906.41
2022-09-25T15:41:36.878Z,99906.75
2022-09-25T15:44:38.542Z,99916.41
2022-09-25T15:47:54.437Z,99900.19
2022-09-25T15:50:59.540Z,99894.84
2022-09-25T15:54:03.886Z,99904.91
2022-09-25T15:57:11.173Z,99893.78
2022-09-25T16:00:56.947Z,99895.03
2022-09-25T16:04:20.414Z,99902.84
2022-09-25T16:07:26.046Z,99900.09
2022-09-25T16:10:33.835Z,99901.81
2022-09-25T16:13:39.003Z,99911.34
2022-09-25T16:16:46.467Z,99909.75
2022-09-25T16:20:01.715Z,99906.69
2022-09-25T16:23:05.762Z,99913.41
2022-09-25T16:26:15.622Z,99910.38
2022-09-25T16:29:22.298Z,99896.44
2022-09-25T16:32:27.795Z,99896.03
2022-09-25T16:35:51.189Z,99905.88
2022-09-25T16:39:26.538Z,99910.00
2022-09-25T16:42:31.410Z,99916.91
2022-09-25T16:45:34.627Z,99912.97
2022-09-25T16:48:39.090Z,99915.72
2022-09-25T16:51:45.764Z,99924.88
2022-09-25T16:54:53.096Z,99924.78
2022-09-25T16:57:56.074Z,99923.72
2022-09-25T17:00:58.886Z,99927.97
2022-09-25T17:04:01.142Z,99921.78
2022-09-25T17:07:04.165Z,99925.66
2022-09-25T17:10:09.069Z,99925.78
2022-09-25T17:13:15.071Z,99929.78
2022-09-25T17:16:17.089Z,99936.91
2022-09-25T17:19:19.137Z,99933.53
2022-09-25T17:22:29.304Z,99946.47
2022-09-25T17:25:40.242Z,99931.00
2022-09-25T17:28:41.795Z,99936.72
2022-09-25T17:31:43.786Z,99939.31
2022-09-25T17:34:46.457Z,99933.63
2022-09-25T17:37:49.558Z,99929.03
2022-09-25T17:40:52.660Z,99923.78
2022-09-25T17:43:54.365Z,99937.22
2022-09-25T17:46:56.599Z,99936.50
2022-09-25T17:49:59.140Z,99943.72
2022-09-25T17:53:03.484Z,99948.06
2022-09-25T17:56:06.806Z,99953.22
2022-09-25T17:59:09.664Z,99957.31
2022-09-25T18:02:15.720Z,99958.25
2022-09-25T18:05:18.440Z,99960.91
2022-09-25T18:08:21.687Z,99961.69
2022-09-25T18:11:25.569Z,99952.56
2022-09-25T18:14:27.190Z,99968.28
2022-09-25T18:17:28.939Z,99968.06
2022-09-25T18:20:49.292Z,99964.63
2022-09-25T18:23:52.256Z,99968.97
2022-09-25T18:26:56.530Z,99966.94
2022-09-25T18:29:58.409Z,99957.63
2022-09-25T18:33:00.423Z,99962.00
2022-09-25T18:36:03.324Z,99955.06
2022-09-25T18:39:06.818Z,99960.69
2022-09-25T18:42:08.490Z,99957.72
2022-09-25T18:45:12.116Z,99965.09
2022-09-25T18:48:13.780Z,99962.63
2022-09-25T18:51:15.630Z,99965.44
2022-09-25T18:54:19.445Z,99958.63
2022-09-25T18:57:21.311Z,99965.63
2022-09-25T19:00:22.980Z,99962.44
2022-09-25T19:03:24.602Z,99958.72
2022-09-25T19:06:26.413Z,99964.56
2022-09-25T19:09:29.603Z,99951.16
2022-09-25T19:12:31.254Z,99955.34
2022-09-25T19:15:33.319Z,99960.09
2022-09-25T19:18:35.484Z,99966.81
2022-09-25T19:21:37.159Z,99962.75
2022-09-25T19:24:41.872Z,99964.13
2022-09-25T19:27:45.979Z,99963.84
2022-09-25T19:30:55.830Z,99966.94
2022-09-25T19:34:00.868Z,99968.78
2022-09-25T19:37:02.795Z,99967.22
2022-09-25T19:40:27.438Z,99962.97
2022-09-25T19:43:29.211Z,99962.06
2022-09-25T19:46:31.974Z,99965.22
2022-09-25T19:49:33.683Z,99966.28
2022-09-25T19:52:35.767Z,99966.66
2022-09-25T19:55:40.912Z,99967.44
2022-09-25T19:58:43.205Z,99965.50
2022-09-25T20:01:45.505Z,99967.34
2022-09-25T20:04:48.582Z,99974.94
2022-09-25T20:07:51.074Z,99966.41
2022-09-25T20:10:54.183Z,99973.53
2022-09-25T20:13:56.010Z,99972.72
2022-09-25T20:16:57.668Z,99976.53
2022-09-25T20:19:59.315Z,99971.78
2022-09-25T20:23:00.927Z,99971.16
2022-09-25T20:26:11.882Z,99961.72
2022-09-25T20:29:15.063Z,99965.03
2022-09-25T20:32:16.662Z,99967.38
2022-09-25T20:35:18.906Z,99962.53
2022-09-25T20:38:20.670Z,99969.59
2022-09-25T20:41:25.963Z,99967.91
2022-09-25T20:44:27.640Z,99967.28
2022-09-25T20:47:33.600Z,99969.50
2022-09-25T20:50:37.095Z,99963.31
2022-09-25T20:53:39.576Z,99960.03
2022-09-25T20:56:45.382Z,99964.13
2022-09-25T20:59:47.090Z,99968.72
2022-09-25T21:02:49.786Z,99964.66
2022-09-25T21:05:51.762Z,99964.53
2022-09-25T21:08:55.117Z,99959.91
2022-09-25T21:11:58.295Z,99955.06
2022-09-25T21:14:59.939Z,99957.28
2022-09-25T21:18:01.716Z,99955.97
2022-09-25T21:21:05.240Z,99953.97
2022-09-25T21:24:07.248Z,99954.41
2022-09-25T21:27:10.260Z,99950.19
2022-09-25T21:30:13.059Z,99942.44
2022-09-25T21:33:15.541Z,99939.13
2022-09-25T21:36:17.706Z,99938.06
2022-09-25T21:39:21.213Z,99949.09
2022-09-25T21:42:24.745Z,99937.41
2022-09-25T21:45:26.388Z,99930.56
2022-09-25T21:48:28.570Z,99931.50
2022-09-25T21:51:32.943Z,99930.06
2022-09-25T21:54:34.771Z,99923.34
2022-09-25T21:57:37.792Z,99932.41
2022-09-25T22:00:39.836Z,99930.72
2022-09-25T22:03:43.068Z,99932.25
2022-09-25T22:06:47.400Z,99926.75
2022-09-25T22:09:49.279Z,99930.44
2022-09-25T22:12:53.860Z,99926.19
2022-09-25T22:16:02.015Z,99928.84
2022-09-25T22:19:09.884Z,99930.19
2022-09-25T22:22:11.531Z,99939.66
2022-09-25T22:25:13.266Z,99932.56
2022-09-25T22:28:16.319Z,99931.09
2022-09-25T22:31:20.390Z,99939.13
2022-09-25T22:34:24.233Z,99932.41
2022-09-25T22:37:26.378Z,99927.41
2022-09-25T22:40:28.267Z,99930.97
2022-09-25T22:43:31.918Z,99928.06
2022-09-25T22:46:33.639Z,99931.75
2022-09-25T22:49:35.340Z,99928.69
2022-09-25T22:52:37.024Z,99931.84
2022-09-25T22:55:38.693Z,99924.59
2022-09-25T22:58:42.359Z,99922.25
2022-09-25T23:01:46.494Z,99911.22
2022-09-25T23:04:51.948Z,99918.28
2022-09-25T23:07:53.649Z,99917.25
2022-09-25T23:11:07.300Z,99905.66
2022-09-25T23:14:16.483Z,99911.72
2022-09-25T23:17:18.359Z,99913.03
2022-09-25T23:20:20.005Z,99909.81
2022-09-25T23:23:21.844Z,99897.19
2022-09-25T23:26:23.695Z,99888.50
2022-09-25T23:29:26.729Z,99901.34
2022-09-25T23:32:28.347Z,99892.50
2022-09-25T23:35:34.211Z,99896.03
2022-09-25T23:38:36.892Z,99889.31
2022-09-25T23:41:39.579Z,99892.56
2022-09-25T23:44:42.579Z,99889.88
2022-09-25T23:47:44.258Z,99887.19
2022-09-25T23:50:46.094Z,99886.88
2022-09-25T23:53:47.765Z,99893.03
2022-09-25T23:56:50.180Z,99889.50
2022-09-25T23:59:53.169Z,99889.69
